sensor_id;sensor_type;location;lat;lon;timestamp;pressure;altitude;pressure_sealevel;temperature;humidity
21504;BME280;10913;51.992;9.228;2023-05-01T00:00:23;100692.28;;;7.67;81.75
21504;BME280;10913;51.992;9.228;2023-05-01T00:02:48;100687.00;;;7.64;81.82
21504;BME280;10913;51.992;9.228;2023-05-01T00:05:14;100680.84;;;7.64;82.18
21504;BME280;10913;51.992;9.228;2023-05-01T00:07:39;100682.63;;;7.65;81.90
21504;BME280;10913;51.992;9.228;2023-05-01T00:10:05;100669.44;;;7.63;81.79
21504;BME280;10913;51.992;9.228;2023-05-01T00:12:31;100673.78;;;7.58;81.83
21504;BME280;10913;51.992;9.228;2023-05-01T00:14:56;100674.56;;;7.51;82.28
21504;BME280;10913;51.992;9.228;2023-05-01T00:17:22;100671.91;;;7.48;82.59
21504;BME280;10913;51.992;9.228;2023-05-01T00:19:52;100674.50;;;7.45;82.39
21504;BME280;10913;51.992;9.228;2023-05-01T00:22:17;100663.06;;;7.41;82.38
21504;BME280;10913;51.992;9.228;2023-05-01T00:24:42;100656.91;;;7.38;82.75
21504;BME280;10913;51.992;9.228;2023-05-01T00:27:08;100659.50;;;7.35;82.74
21504;BME280;10913;51.992;9.228;2023-05-01T00:29:33;100663.00;;;7.35;82.99
21504;BME280;10913;51.992;9.228;2023-05-01T00:31:59;100656.81;;;7.32;83.01
21504;BME280;10913;51.992;9.228;2023-05-01T00:34:24;100646.22;;;7.25;83.38
21504;BME280;10913;51.992;9.228;2023-05-01T00:36:49;100647.91;;;7.20;83.47
21504;BME280;10913;51.992;9.228;2023-05-01T00:39:15;100642.66;;;7.20;83.59
21504;BME280;10913;51.992;9.228;2023-05-01T00:41:40;100642.66;;;7.20;83.67
21504;BME280;10913;51.992;9.228;2023-05-01T00:44:06;100643.50;;;7.19;83.51
21504;BME280;10913;51.992;9.228;2023-05-01T00:46:32;100637.41;;;7.19;83.63
21504;BME280;10913;51.992;9.228;2023-05-01T00:48:58;100635.63;;;7.19;83.41
21504;BME280;10913;51.992;9.228;2023-05-01T00:51:25;100633.91;;;7.18;83.77
21504;BME280;10913;51.992;9.228;2023-05-01T00:53:54;100630.34;;;7.15;83.83
21504;BME280;10913;51.992;9.228;2023-05-01T00:56:20;100629.34;;;7.05;84.23
21504;BME280;10913;51.992;9.228;2023-05-01T00:58:49;100624.88;;;6.98;84.95
21504;BME280;10913;51.992;9.228;2023-05-01T01:01:16;100619.41;;;6.83;85.17
21504;BME280;10913;51.992;9.228;2023-05-01T01:03:41;100619.34;;;6.77;85.00
21504;BME280;10913;51.992;9.228;2023-05-01T01:11:41;100611.41;;;6.74;85.55
21504;BME280;10913;51.992;9.228;2023-05-01T01:17:37;100608.84;;;6.77;84.88
21504;BME280;10913;51.992;9.228;2023-05-01T01:20:30;100603.59;;;6.77;85.01
21504;BME280;10913;51.992;9.228;2023-05-01T01:29:30;100590.41;;;6.72;85.06
21504;BME280;10913;51.992;9.228;2023-05-01T01:34:49;100591.19;;;6.67;85.20
21504;BME280;10913;51.992;9.228;2023-05-01T01:37:22;100585.94;;;6.67;84.94
21504;BME280;10913;51.992;9.228;2023-05-01T01:39:52;100579.78;;;6.65;85.33
21504;BME280;10913;51.992;9.228;2023-05-01T01:42:28;100582.34;;;6.60;85.26
21504;BME280;10913;51.992;9.228;2023-05-01T01:44:55;100586.66;;;6.55;85.43
21504;BME280;10913;51.992;9.228;2023-05-01T01:47:27;100576.03;;;6.47;86.13
21504;BME280;10913;51.992;9.228;2023-05-01T01:49:57;100571.59;;;6.43;86.18
21504;BME280;10913;51.992;9.228;2023-05-01T01:52:25;100567.22;;;6.42;86.14
21504;BME280;10913;51.992;9.228;2023-05-01T01:55:02;100561.06;;;6.40;86.64
21504;BME280;10913;51.992;9.228;2023-05-01T01:57:31;100553.16;;;6.37;86.81
21504;BME280;10913;51.992;9.228;2023-05-01T01:59:57;100548.72;;;6.33;86.93
21504;BME280;10913;51.992;9.228;2023-05-01T02:02:23;100546.88;;;6.28;87.14
21504;BME280;10913;51.992;9.228;2023-05-01T02:04:51;100553.88;;;6.27;87.32
21504;BME280;10913;51.992;9.228;2023-05-01T02:07:18;100552.94;;;6.23;87.71
21504;BME280;10913;51.992;9.228;2023-05-01T02:09:45;100546.88;;;6.26;87.85
21504;BME280;10913;51.992;9.228;2023-05-01T02:12:11;100541.53;;;6.21;87.51
21504;BME280;10913;51.992;9.228;2023-05-01T02:14:37;100537.19;;;6.22;87.54
21504;BME280;10913;51.992;9.228;2023-05-01T02:17:04;100533.69;;;6.21;87.57
21504;BME280;10913;51.992;9.228;2023-05-01T02:19:31;100537.19;;;6.22;87.31
21504;BME280;10913;51.992;9.228;2023-05-01T02:21:58;100545.09;;;6.25;87.34
21504;BME280;10913;51.992;9.228;2023-05-01T02:24:24;100537.16;;;6.19;87.16
21504;BME280;10913;51.992;9.228;2023-05-01T02:27:14;100531.03;;;6.20;86.89
21504;BME280;10913;51.992;9.228;2023-05-01T02:29:41;100533.63;;;6.17;87.28
21504;BME280;10913;51.992;9.228;2023-05-01T02:32:07;100523.94;;;6.11;87.61
21504;BME280;10913;51.992;9.228;2023-05-01T02:34:35;100525.59;;;6.06;87.63
21504;BME280;10913;51.992;9.228;2023-05-01T02:37:03;100530.75;;;6.02;87.55
21504;BME280;10913;51.992;9.228;2023-05-01T02:39:30;100522.03;;;6.03;88.01
21504;BME280;10913;51.992;9.228;2023-05-01T02:41:56;100520.28;;;6.03;87.92
21504;BME280;10913;51.992;9.228;2023-05-01T02:44:23;100519.44;;;6.04;87.71
21504;BME280;10913;51.992;9.228;2023-05-01T02:46:51;100514.13;;;6.00;87.84
21504;BME280;10913;51.992;9.228;2023-05-01T02:49:17;100508.00;;;5.98;87.99
21504;BME280;10913;51.992;9.228;2023-05-01T02:51:45;100511.47;;;5.97;87.89
21504;BME280;10913;51.992;9.228;2023-05-01T02:54:11;100508.00;;;5.98;87.83
21504;BME280;10913;51.992;9.228;2023-05-01T02:56:37;100506.22;;;5.97;87.80
21504;BME280;10913;51.992;9.228;2023-05-01T02:59:03;100503.59;;;5.95;87.68
21504;BME280;10913;51.992;9.228;2023-05-01T03:01:28;100497.41;;;5.92;88.08
21504;BME280;10913;51.992;9.228;2023-05-01T03:03:54;100495.63;;;5.91;87.90
21504;BME280;10913;51.992;9.228;2023-05-01T03:06:19;100490.25;;;5.84;88.40
21504;BME280;10913;51.992;9.228;2023-05-01T03:08:44;100485.88;;;5.83;88.31
21504;BME280;10913;51.992;9.228;2023-05-01T03:11:11;100483.22;;;5.82;88.67
21504;BME280;10913;51.992;9.228;2023-05-01T03:13:37;100479.72;;;5.81;88.22
21504;BME280;10913;51.992;9.228;2023-05-01T03:16:02;100477.94;;;5.80;88.36
21504;BME280;10913;51.992;9.228;2023-05-01T03:18:28;100471.84;;;5.78;88.29
21504;BME280;10913;51.992;9.228;2023-05-01T03:20:54;100471.78;;;5.75;88.58
21504;BME280;10913;51.992;9.228;2023-05-01T03:23:23;100462.13;;;5.73;88.90
21504;BME280;10913;51.992;9.228;2023-05-01T03:25:49;100464.72;;;5.71;89.12
21504;BME280;10913;51.992;9.228;2023-05-01T03:28:14;100456.81;;;5.68;89.20
21504;BME280;10913;51.992;9.228;2023-05-01T03:30:40;100455.91;;;5.66;89.89
21504;BME280;10913;51.992;9.228;2023-05-01T03:33:06;100467.25;;;5.65;88.88
21504;BME280;10913;51.992;9.228;2023-05-01T03:35:31;100458.41;;;5.57;89.80
21504;BME280;10913;51.992;9.228;2023-05-01T03:37:57;100449.53;;;5.49;90.69
21504;BME280;10913;51.992;9.228;2023-05-01T03:40:22;100451.13;;;5.41;90.80
21504;BME280;10913;51.992;9.228;2023-05-01T03:42:47;100455.41;;;5.34;91.02
21504;BME280;10913;51.992;9.228;2023-05-01T03:45:13;100449.25;;;5.32;91.11
21504;BME280;10913;51.992;9.228;2023-05-01T03:47:38;100444.72;;;5.24;91.33
21504;BME280;10913;51.992;9.228;2023-05-01T03:50:04;100442.16;;;5.27;91.95
21504;BME280;10913;51.992;9.228;2023-05-01T03:52:30;100441.19;;;5.22;92.12
21504;BME280;10913;51.992;9.228;2023-05-01T03:54:55;100438.56;;;5.22;92.36
21504;BME280;10913;51.992;9.228;2023-05-01T03:57:21;100438.56;;;5.22;92.35
21504;BME280;10913;51.992;9.228;2023-05-01T03:59:47;100433.31;;;5.18;92.28
21504;BME280;10913;51.992;9.228;2023-05-01T04:02:13;100436.72;;;5.14;92.48
21504;BME280;10913;51.992;9.228;2023-05-01T04:04:38;100429.72;;;5.13;93.17
21504;BME280;10913;51.992;9.228;2023-05-01T04:07:04;100436.78;;;5.17;92.55
21504;BME280;10913;51.992;9.228;2023-05-01T04:09:29;100436.88;;;5.24;92.01
21504;BME280;10913;51.992;9.228;2023-05-01T04:11:55;100437.81;;;5.27;91.73
21504;BME280;10913;51.992;9.228;2023-05-01T04:14:20;100437.84;;;5.30;91.62
21504;BME280;10913;51.992;9.228;2023-05-01T04:16:46;100433.56;;;5.34;91.50
21504;BME280;10913;51.992;9.228;2023-05-01T04:19:11;100438.84;;;5.37;90.97
21504;BME280;10913;51.992;9.228;2023-05-01T04:21:37;100429.28;;;5.39;90.63
21504;BME280;10913;51.992;9.228;2023-05-01T04:24:02;100429.28;;;5.39;90.43
21504;BME280;10913;51.992;9.228;2023-05-01T04:26:28;100433.69;;;5.43;90.31
21504;BME280;10913;51.992;9.228;2023-05-01T04:28:53;100431.94;;;5.42;90.28
21504;BME280;10913;51.992;9.228;2023-05-01T04:31:18;100424.94;;;5.42;90.79
21504;BME280;10913;51.992;9.228;2023-05-01T04:33:44;100431.09;;;5.44;90.61
21504;BME280;10913;51.992;9.228;2023-05-01T04:36:10;100423.25;;;5.46;91.07
21504;BME280;10913;51.992;9.228;2023-05-01T04:38:35;100426.78;;;5.48;90.78
21504;BME280;10913;51.992;9.228;2023-05-01T04:41:01;100422.47;;;5.50;91.12
21504;BME280;10913;51.992;9.228;2023-05-01T04:43:27;100415.53;;;5.53;90.67
21504;BME280;10913;51.992;9.228;2023-05-01T04:45:53;100420.84;;;5.58;90.56
21504;BME280;10913;51.992;9.228;2023-05-01T04:48:18;100419.16;;;5.63;90.45
21504;BME280;10913;51.992;9.228;2023-05-01T04:50:44;100421.00;;;5.69;90.08
21504;BME280;10913;51.992;9.228;2023-05-01T04:53:09;100421.06;;;5.73;90.19
21504;BME280;10913;51.992;9.228;2023-05-01T04:55:35;100409.78;;;5.80;90.00
21504;BME280;10913;51.992;9.228;2023-05-01T04:58:00;100406.41;;;5.87;89.79
21504;BME280;10913;51.992;9.228;2023-05-01T05:00:28;100410.91;;;5.93;89.70
21504;BME280;10913;51.992;9.228;2023-05-01T05:02:53;100414.47;;;6.00;89.43
21504;BME280;10913;51.992;9.228;2023-05-01T05:05:18;100408.47;;;6.07;89.12
21504;BME280;10913;51.992;9.228;2023-05-01T05:07:44;100409.44;;;6.13;89.25
21504;BME280;10913;51.992;9.228;2023-05-01T05:10:09;100406.88;;;6.18;89.45
21504;BME280;10913;51.992;9.228;2023-05-01T05:12:35;100411.31;;;6.25;89.29
21504;BME280;10913;51.992;9.228;2023-05-01T05:15:00;100405.28;;;6.32;88.89
21504;BME280;10913;51.992;9.228;2023-05-01T05:17:25;100411.47;;;6.37;88.72
21504;BME280;10913;51.992;9.228;2023-05-01T05:19:51;100398.41;;;6.43;88.61
21504;BME280;10913;51.992;9.228;2023-05-01T05:22:16;100405.47;;;6.49;88.46
21504;BME280;10913;51.992;9.228;2023-05-01T05:24:42;100405.59;;;6.56;87.98
21504;BME280;10913;51.992;9.228;2023-05-01T05:27:07;100406.50;;;6.63;88.00
21504;BME280;10913;51.992;9.228;2023-05-01T05:29:32;100408.31;;;6.69;87.66
21504;BME280;10913;51.992;9.228;2023-05-01T05:31:59;100404.94;;;6.77;87.48
21504;BME280;10913;51.992;9.228;2023-05-01T05:34:24;100401.47;;;6.84;87.51
21504;BME280;10913;51.992;9.228;2023-05-01T05:36:50;100396.34;;;6.94;87.13
21504;BME280;10913;51.992;9.228;2023-05-01T05:39:16;100395.53;;;7.04;87.08
21504;BME280;10913;51.992;9.228;2023-05-01T05:41:41;100387.75;;;7.14;87.35
21504;BME280;10913;51.992;9.228;2023-05-01T05:44:07;100395.72;;;7.23;86.81
21504;BME280;10913;51.992;9.228;2023-05-01T05:46:32;100387.88;;;7.30;86.87
21504;BME280;10913;51.992;9.228;2023-05-01T05:48:57;100388.84;;;7.38;86.27
21504;BME280;10913;51.992;9.228;2023-05-01T05:51:23;100383.59;;;7.42;86.11
21504;BME280;10913;51.992;9.228;2023-05-01T05:53:48;100387.16;;;7.49;86.49
21504;BME280;10913;51.992;9.228;2023-05-01T05:56:13;100377.53;;;7.52;86.39
21504;BME280;10913;51.992;9.228;2023-05-01T05:58:39;100369.69;;;7.60;86.61
21504;BME280;10913;51.992;9.228;2023-05-01T06:01:04;100374.13;;;7.67;86.20
21504;BME280;10913;51.992;9.228;2023-05-01T06:03:31;100370.69;;;7.76;86.31
21504;BME280;10913;51.992;9.228;2023-05-01T06:05:56;100363.72;;;7.85;85.61
21504;BME280;10913;51.992;9.228;2023-05-01T06:08:22;100362.00;;;7.93;85.22
21504;BME280;10913;51.992;9.228;2023-05-01T06:10:47;100353.28;;;8.05;84.92
21504;BME280;10913;51.992;9.228;2023-05-01T06:13:12;100357.72;;;8.20;84.57
21504;BME280;10913;51.992;9.228;2023-05-01T06:15:39;100355.19;;;8.34;85.12
21504;BME280;10913;51.992;9.228;2023-05-01T06:18:05;100351.72;;;8.47;84.74
21504;BME280;10913;51.992;9.228;2023-05-01T06:20:31;100354.38;;;8.62;85.12
21504;BME280;10913;51.992;9.228;2023-05-01T06:22:56;100357.94;;;8.76;84.60
21504;BME280;10913;51.992;9.228;2023-05-01T06:25:22;100351.78;;;8.92;84.00
21504;BME280;10913;51.992;9.228;2023-05-01T06:27:49;100349.16;;;9.09;83.41
21504;BME280;10913;51.992;9.228;2023-05-01T06:30:14;100350.91;;;9.28;83.41
21504;BME280;10913;51.992;9.228;2023-05-01T06:32:40;100344.72;;;9.48;84.03
21504;BME280;10913;51.992;9.228;2023-05-01T06:35:08;100349.97;;;9.67;83.21
21504;BME280;10913;51.992;9.228;2023-05-01T06:37:33;100338.47;;;9.87;83.58
21504;BME280;10913;51.992;9.228;2023-05-01T06:40:00;100332.25;;;10.05;83.62
21504;BME280;10913;51.992;9.228;2023-05-01T06:42:25;100339.25;;;10.21;82.84
21504;BME280;10913;51.992;9.228;2023-05-01T06:44:50;100338.31;;;10.35;81.69
21504;BME280;10913;51.992;9.228;2023-05-01T06:47:16;100342.63;;;10.50;80.81
21504;BME280;10913;51.992;9.228;2023-05-01T06:49:41;100334.63;;;10.62;78.92
21504;BME280;10913;51.992;9.228;2023-05-01T06:52:07;100329.28;;;10.75;75.58
21504;BME280;10913;51.992;9.228;2023-05-01T06:54:33;100332.69;;;10.89;73.26
21504;BME280;10913;51.992;9.228;2023-05-01T06:56:58;100331.75;;;10.99;71.72
21504;BME280;10913;51.992;9.228;2023-05-01T06:59:23;100329.00;;;11.11;70.87
21504;BME280;10913;51.992;9.228;2023-05-01T07:01:49;100325.31;;;11.29;70.06
21504;BME280;10913;51.992;9.228;2023-05-01T07:04:14;100319.91;;;11.39;70.04
21504;BME280;10913;51.992;9.228;2023-05-01T07:06:40;100324.13;;;11.59;69.95
21504;BME280;10913;51.992;9.228;2023-05-01T07:09:05;100316.03;;;11.77;70.39
21504;BME280;10913;51.992;9.228;2023-05-01T07:11:32;100314.06;;;11.94;69.69
21504;BME280;10913;51.992;9.228;2023-05-01T07:13:58;100314.69;;;12.13;68.50
21504;BME280;10913;51.992;9.228;2023-05-01T07:16:23;100312.75;;;12.26;68.78
21504;BME280;10913;51.992;9.228;2023-05-01T07:18:49;100314.22;;;12.48;69.11
21504;BME280;10913;51.992;9.228;2023-05-01T07:21:14;100316.69;;;12.60;67.21
21504;BME280;10913;51.992;9.228;2023-05-01T07:23:39;100315.47;;;12.83;67.74
21504;BME280;10913;51.992;9.228;2023-05-01T07:26:05;100307.03;;;13.11;66.78
21504;BME280;10913;51.992;9.228;2023-05-01T07:28:31;100299.44;;;13.42;66.65
21504;BME280;10913;51.992;9.228;2023-05-01T07:30:56;100297.94;;;13.75;65.13
21504;BME280;10913;51.992;9.228;2023-05-01T07:33:22;100288.28;;;14.14;64.92
21504;BME280;10913;51.992;9.228;2023-05-01T07:35:50;100281.59;;;15.11;62.59
21504;BME280;10913;51.992;9.228;2023-05-01T07:38:16;100275.47;;;16.62;59.28
21504;BME280;10913;51.992;9.228;2023-05-01T07:40:41;100271.19;;;18.12;55.79
21504;BME280;10913;51.992;9.228;2023-05-01T07:43:07;100269.97;;;19.51;53.38
21504;BME280;10913;51.992;9.228;2023-05-01T07:45:35;100257.09;;;20.38;52.05
21504;BME280;10913;51.992;9.228;2023-05-01T07:48:01;100260.13;;;21.21;50.30
21504;BME280;10913;51.992;9.228;2023-05-01T07:50:26;100258.72;;;21.81;50.14
21504;BME280;10913;51.992;9.228;2023-05-01T07:52:51;100263.13;;;22.32;49.03
21504;BME280;10913;51.992;9.228;2023-05-01T07:55:17;100250.09;;;22.88;47.47
21504;BME280;10913;51.992;9.228;2023-05-01T07:57:43;100241.66;;;23.24;47.43
21504;BME280;10913;51.992;9.228;2023-05-01T08:00:09;100246.72;;;23.30;47.09
21504;BME280;10913;51.992;9.228;2023-05-01T08:02:34;100243.41;;;23.25;47.36
21504;BME280;10913;51.992;9.228;2023-05-01T08:05:00;100249.47;;;22.20;47.35
21504;BME280;10913;51.992;9.228;2023-05-01T08:07:28;100238.47;;;21.24;48.31
21504;BME280;10913;51.992;9.228;2023-05-01T08:09:53;100255.63;;;20.49;49.71
21504;BME280;10913;51.992;9.228;2023-05-01T08:12:18;100245.94;;;19.69;50.77
21504;BME280;10913;51.992;9.228;2023-05-01T08:14:44;100243.25;;;19.08;51.91
21504;BME280;10913;51.992;9.228;2023-05-01T08:17:09;100239.91;;;18.81;52.47
21504;BME280;10913;51.992;9.228;2023-05-01T08:19:35;100247.63;;;18.67;53.22
21504;BME280;10913;51.992;9.228;2023-05-01T08:22:00;100243.34;;;18.63;53.39
21504;BME280;10913;51.992;9.228;2023-05-01T08:24:25;100243.31;;;18.84;53.30
21504;BME280;10913;51.992;9.228;2023-05-01T08:26:51;100240.31;;;19.14;52.96
21504;BME280;10913;51.992;9.228;2023-05-01T08:29:17;100246.19;;;19.42;52.65
21504;BME280;10913;51.992;9.228;2023-05-01T08:31:42;100236.41;;;19.41;52.53
21504;BME280;10913;51.992;9.228;2023-05-01T08:34:08;100233.31;;;19.52;52.76
21504;BME280;10913;51.992;9.228;2023-05-01T08:36:33;100231.34;;;19.35;52.86
21504;BME280;10913;51.992;9.228;2023-05-01T08:38:59;100231.28;;;19.37;53.29
21504;BME280;10913;51.992;9.228;2023-05-01T08:41:26;100223.47;;;19.52;53.33
21504;BME280;10913;51.992;9.228;2023-05-01T08:43:52;100227.13;;;19.70;53.88
21504;BME280;10913;51.992;9.228;2023-05-01T08:46:27;100214.81;;;19.85;52.48
21504;BME280;10913;51.992;9.228;2023-05-01T08:48:56;100217.22;;;20.10;52.12
21504;BME280;10913;51.992;9.228;2023-05-01T08:51:24;100215.28;;;20.13;52.38
21504;BME280;10913;51.992;9.228;2023-05-01T08:53:50;100214.19;;;20.17;52.19
21504;BME280;10913;51.992;9.228;2023-05-01T08:56:17;100208.91;;;20.35;52.61
21504;BME280;10913;51.992;9.228;2023-05-01T08:58:44;100213.22;;;20.18;51.95
21504;BME280;10913;51.992;9.228;2023-05-01T09:01:17;100212.38;;;20.18;53.38
21504;BME280;10913;51.992;9.228;2023-05-01T09:03:44;100214.41;;;19.94;53.00
21504;BME280;10913;51.992;9.228;2023-05-01T09:06:11;100206.56;;;20.08;52.77
21504;BME280;10913;51.992;9.228;2023-05-01T09:08:36;100204.69;;;20.10;52.96
21504;BME280;10913;51.992;9.228;2023-05-01T09:11:02;100204.84;;;20.07;52.82
21504;BME280;10913;51.992;9.228;2023-05-01T09:13:29;100203.88;;;20.08;54.18
21504;BME280;10913;51.992;9.228;2023-05-01T09:15:54;100202.81;;;20.31;53.12
21504;BME280;10913;51.992;9.228;2023-05-01T09:18:21;100199.47;;;20.45;53.50
21504;BME280;10913;51.992;9.228;2023-05-01T09:20:47;100192.22;;;20.47;53.48
21504;BME280;10913;51.992;9.228;2023-05-01T09:23:13;100198.44;;;20.47;52.77
21504;BME280;10913;51.992;9.228;2023-05-01T09:25:39;100192.34;;;20.44;52.87
21504;BME280;10913;51.992;9.228;2023-05-01T09:28:05;100185.25;;;20.43;52.75
21504;BME280;10913;51.992;9.228;2023-05-01T09:30:35;100187.00;;;20.44;54.30
21504;BME280;10913;51.992;9.228;2023-05-01T09:33:11;100183.94;;;20.33;53.76
21504;BME280;10913;51.992;9.228;2023-05-01T09:35:56;100184.75;;;20.35;53.90
21504;BME280;10913;51.992;9.228;2023-05-01T09:38:25;100185.31;;;20.22;53.26
21504;BME280;10913;51.992;9.228;2023-05-01T09:40:53;100182.00;;;20.17;53.42
21504;BME280;10913;51.992;9.228;2023-05-01T09:43:24;100174.31;;;20.10;54.05
21504;BME280;10913;51.992;9.228;2023-05-01T09:46:00;100181.50;;;20.09;53.94
21504;BME280;10913;51.992;9.228;2023-05-01T09:48:28;100179.31;;;19.99;54.31
21504;BME280;10913;51.992;9.228;2023-05-01T09:50:54;100182.22;;;20.13;55.66
21504;BME280;10913;51.992;9.228;2023-05-01T09:53:33;100184.84;;;20.14;54.12
21504;BME280;10913;51.992;9.228;2023-05-01T09:56:00;100174.66;;;20.21;54.00
21504;BME280;10913;51.992;9.228;2023-05-01T09:58:27;100165.97;;;20.35;56.11
21504;BME280;10913;51.992;9.228;2023-05-01T10:00:52;100173.44;;;20.47;55.46
21504;BME280;10913;51.992;9.228;2023-05-01T10:03:18;100160.34;;;20.58;55.42
21504;BME280;10913;51.992;9.228;2023-05-01T10:05:43;100156.75;;;20.76;54.45
21504;BME280;10913;51.992;9.228;2023-05-01T10:08:09;100161.47;;;20.71;53.29
21504;BME280;10913;51.992;9.228;2023-05-01T10:10:39;100155.16;;;20.72;53.40
21504;BME280;10913;51.992;9.228;2023-05-01T10:13:16;100152.06;;;20.80;54.09
21504;BME280;10913;51.992;9.228;2023-05-01T10:15:43;100155.00;;;20.75;53.82
21504;BME280;10913;51.992;9.228;2023-05-01T10:18:09;100155.81;;;20.77;54.04
21504;BME280;10913;51.992;9.228;2023-05-01T10:20:37;100152.84;;;20.82;55.00
21504;BME280;10913;51.992;9.228;2023-05-01T10:23:03;100151.28;;;20.78;53.47
21504;BME280;10913;51.992;9.228;2023-05-01T10:25:30;100147.91;;;20.74;54.58
21504;BME280;10913;51.992;9.228;2023-05-01T10:27:56;100143.53;;;20.72;54.39
21504;BME280;10913;51.992;9.228;2023-05-01T10:30:22;100147.09;;;20.89;55.06
21504;BME280;10913;51.992;9.228;2023-05-01T10:32:47;100143.75;;;21.02;54.94
21504;BME280;10913;51.992;9.228;2023-05-01T10:35:40;100142.66;;;21.06;54.13
21504;BME280;10913;51.992;9.228;2023-05-01T10:38:12;100134.38;;;21.10;55.03
21504;BME280;10913;51.992;9.228;2023-05-01T10:45:37;100130.69;;;21.46;55.30
21504;BME280;10913;51.992;9.228;2023-05-01T10:48:03;100129.19;;;21.57;54.68
21504;BME280;10913;51.992;9.228;2023-05-01T10:50:28;100125.38;;;21.77;55.00
21504;BME280;10913;51.992;9.228;2023-05-01T10:55:45;100117.09;;;22.13;52.33
21504;BME280;10913;51.992;9.228;2023-05-01T10:58:12;100119.91;;;22.57;53.09
21504;BME280;10913;51.992;9.228;2023-05-01T11:00:38;100107.06;;;22.77;50.79
21504;BME280;10913;51.992;9.228;2023-05-01T11:08:36;100101.56;;;23.08;49.61
21504;BME280;10913;51.992;9.228;2023-05-01T11:14:04;100085.88;;;23.43;51.59
21504;BME280;10913;51.992;9.228;2023-05-01T11:21:47;100077.38;;;23.92;50.66
21504;BME280;10913;51.992;9.228;2023-05-01T11:24:14;100072.50;;;24.11;51.13
21504;BME280;10913;51.992;9.228;2023-05-01T11:26:41;100068.41;;;24.32;50.86
21504;BME280;10913;51.992;9.228;2023-05-01T11:29:10;100078.69;;;24.40;50.08
21504;BME280;10913;51.992;9.228;2023-05-01T11:31:36;100074.31;;;24.52;49.94
21504;BME280;10913;51.992;9.228;2023-05-01T11:34:03;100077.22;;;24.49;50.12
21504;BME280;10913;51.992;9.228;2023-05-01T11:36:46;100080.03;;;24.60;50.33
21504;BME280;10913;51.992;9.228;2023-05-01T11:39:15;100075.19;;;24.65;50.14
21504;BME280;10913;51.992;9.228;2023-05-01T11:41:42;100079.91;;;24.49;49.34
21504;BME280;10913;51.992;9.228;2023-05-01T11:44:07;100077.19;;;24.36;50.48
21504;BME280;10913;51.992;9.228;2023-05-01T11:46:35;100068.84;;;24.12;50.34
21504;BME280;10913;51.992;9.228;2023-05-01T11:49:01;100072.34;;;24.00;50.55
21504;BME280;10913;51.992;9.228;2023-05-01T11:51:27;100073.16;;;23.88;50.84
21504;BME280;10913;51.992;9.228;2023-05-01T11:54:19;100078.50;;;23.61;50.54
21504;BME280;10913;51.992;9.228;2023-05-01T11:56:44;100071.63;;;23.41;50.32
21504;BME280;10913;51.992;9.228;2023-05-01T11:59:15;100078.69;;;23.29;48.70
21504;BME280;10913;51.992;9.228;2023-05-01T12:01:43;100078.78;;;23.14;49.37
21504;BME280;10913;51.992;9.228;2023-05-01T12:04:09;100075.22;;;23.13;50.05
21504;BME280;10913;51.992;9.228;2023-05-01T12:06:43;100075.22;;;23.13;49.78
21504;BME280;10913;51.992;9.228;2023-05-01T12:09:11;100070.88;;;23.11;49.97
21504;BME280;10913;51.992;9.228;2023-05-01T12:11:40;100075.00;;;23.02;50.37
21504;BME280;10913;51.992;9.228;2023-05-01T12:14:06;100072.97;;;22.91;50.86
21504;BME280;10913;51.992;9.228;2023-05-01T12:16:33;100071.41;;;22.87;52.05
21504;BME280;10913;51.992;9.228;2023-05-01T12:18:58;100078.50;;;22.74;52.29
21504;BME280;10913;51.992;9.228;2023-05-01T12:21:24;100070.09;;;22.64;52.41
21504;BME280;10913;51.992;9.228;2023-05-01T12:23:52;100067.97;;;22.55;52.88
21504;BME280;10913;51.992;9.228;2023-05-01T12:26:20;100067.03;;;22.41;53.95
21504;BME280;10913;51.992;9.228;2023-05-01T12:28:56;100067.22;;;22.38;53.48
21504;BME280;10913;51.992;9.228;2023-05-01T12:31:22;100062.03;;;22.34;52.72
21504;BME280;10913;51.992;9.228;2023-05-01T12:34:06;100062.19;;;22.31;52.58
21504;BME280;10913;51.992;9.228;2023-05-01T12:36:34;100060.72;;;22.26;52.75
21504;BME280;10913;51.992;9.228;2023-05-01T12:39:08;100060.03;;;22.22;52.65
21504;BME280;10913;51.992;9.228;2023-05-01T12:44:20;100060.66;;;22.12;52.63
21504;BME280;10913;51.992;9.228;2023-05-01T12:46:59;100062.13;;;22.02;52.59
21504;BME280;10913;51.992;9.228;2023-05-01T12:49:26;100057.97;;;21.96;53.00
21504;BME280;10913;51.992;9.228;2023-05-01T12:51:53;100060.66;;;21.96;53.05
21504;BME280;10913;51.992;9.228;2023-05-01T12:54:30;100055.38;;;21.94;52.67
21504;BME280;10913;51.992;9.228;2023-05-01T12:57:14;100052.59;;;21.96;52.88
21504;BME280;10913;51.992;9.228;2023-05-01T12:59:45;100046.94;;;22.00;52.25
21504;BME280;10913;51.992;9.228;2023-05-01T13:02:12;100042.25;;;22.04;53.00
21504;BME280;10913;51.992;9.228;2023-05-01T13:04:42;100042.88;;;22.09;52.74
21504;BME280;10913;51.992;9.228;2023-05-01T13:07:13;100035.50;;;22.13;52.41
21504;BME280;10913;51.992;9.228;2023-05-01T13:09:56;100037.72;;;22.20;52.23
21504;BME280;10913;51.992;9.228;2023-05-01T13:12:23;100038.94;;;22.30;53.13
21504;BME280;10913;51.992;9.228;2023-05-01T13:14:49;100031.06;;;22.42;51.96
21504;BME280;10913;51.992;9.228;2023-05-01T13:17:26;100031.50;;;22.64;51.52
21504;BME280;10913;51.992;9.228;2023-05-01T13:22:38;100023.50;;;23.07;51.05
21504;BME280;10913;51.992;9.228;2023-05-01T13:27:39;100035.53;;;23.29;50.12
21504;BME280;10913;51.992;9.228;2023-05-01T13:30:05;100027.53;;;23.42;49.46
21504;BME280;10913;51.992;9.228;2023-05-01T13:32:30;100014.94;;;23.57;48.89
21504;BME280;10913;51.992;9.228;2023-05-01T13:34:59;100014.03;;;23.70;49.27
21504;BME280;10913;51.992;9.228;2023-05-01T13:37:28;100011.44;;;23.69;47.31
21504;BME280;10913;51.992;9.228;2023-05-01T13:39:57;100016.34;;;23.62;49.03
21504;BME280;10913;51.992;9.228;2023-05-01T13:42:23;100011.91;;;23.61;49.60